»·PEaware :: N652MA KLGB-KONT

N652MA :: KLGB-KONT

FLIGHT INFORMATION

Flight Status: Arrived
Operator: Privately registered:
United States
More flights under this callsign
Pilot: Martin K. (14811)
Aircraft: CESSNA 172 SKYHAWK
(C172)
More flights by this aircraft type
Origin: KLGB Long Beach
United States
Destination: KONT Ontario Intl
United States
More flights between these airports :: More routes between these airports
Route: +
File this flight plan on PilotEdge
Remarks:
Altitude:
(Current/Filed)
3,000ft
Speed:
(Current/Filed)
0kts
Departed: 15-May-18 08:52 PM
Arrived: 15-May-18 09:15 PM
Distance/Time
Traveled:
31nm/0:23
Distance/Time
To Go:
Arrived

Flight Plot

Page will automatically refresh every two minutes.


Map Options




Map Legend


Flown Route
Filed Route
Departure Airport
Arrival Airport
Navaid (VOR, NDB)
Fix

Horizontal Profiles

Position Reports

Time Latitude Longitude Heading Altitude Ground
Speed
15-May-18 20:30 33.812558 -118.153575 90 63ft 0kts
15-May-18 20:31 33.812558 -118.153575 90 63ft 0kts
15-May-18 20:32 33.812558 -118.153575 90 63ft 0kts
15-May-18 20:33 33.812558 -118.153575 90 63ft 0kts
15-May-18 20:34 33.812558 -118.153575 90 63ft 0kts
15-May-18 20:35 33.812558 -118.153575 90 63ft 0kts
15-May-18 20:36 33.812558 -118.153575 90 63ft 0kts
15-May-18 20:37 33.812558 -118.153575 90 63ft 0kts
15-May-18 20:38 33.812558 -118.153575 90 63ft 0kts
15-May-18 20:39 33.812558 -118.153575 90 63ft 0kts
15-May-18 20:40 33.812558 -118.153575 90 63ft 0kts
15-May-18 20:41 33.812558 -118.153575 90 63ft 0kts
15-May-18 20:42 33.812558 -118.153575 90 63ft 0kts
15-May-18 20:43 33.812558 -118.153575 90 63ft 0kts
15-May-18 20:44 33.812558 -118.153575 90 63ft 0kts
15-May-18 20:45 33.813068 -118.152228 91 63ft 5kts
15-May-18 20:46 33.813070 -118.150035 105 63ft 21kts
15-May-18 20:47 33.811407 -118.145286 129 63ft 20kts
15-May-18 20:48 33.808121 -118.141299 133 63ft 16kts
15-May-18 20:49 33.806476 -118.139095 80 63ft 0kts
15-May-18 20:50 33.806476 -118.139095 80 63ft 0kts
15-May-18 20:51 33.807693 -118.139170 318 63ft 24kts
15-May-18 20:52 33.819785 -118.151463 300 615ft 66kts
15-May-18 20:53 33.808429 -118.165448 207 1288ft 78kts
15-May-18 20:54 33.788139 -118.173515 196 1826ft 79kts
15-May-18 20:55 33.775517 -118.163176 63 2316ft 90kts
15-May-18 20:56 33.786985 -118.141610 51 2744ft 90kts
15-May-18 20:57 33.804859 -118.112790 48 3077ft 110kts
15-May-18 20:58 33.824857 -118.081951 48 2926ft 121kts
15-May-18 20:59 33.845499 -118.051840 39 2913ft 118kts
15-May-18 21:00 33.870229 -118.028004 36 2939ft 117kts
15-May-18 21:01 33.893135 -118.000896 53 2903ft 118kts
15-May-18 21:02 33.910311 -117.968291 56 2917ft 116kts
15-May-18 21:03 33.925344 -117.934547 60 2933ft 115kts
15-May-18 21:04 33.938664 -117.899953 63 2990ft 114kts
15-May-18 21:05 33.952000 -117.865370 63 3016ft 119kts
15-May-18 21:06 33.966488 -117.828064 62 3046ft 129kts
15-May-18 21:07 33.982473 -117.788951 63 3028ft 132kts
15-May-18 21:08 33.998144 -117.748708 58 2804ft 134kts
15-May-18 21:09 34.014780 -117.708703 64 2530ft 134kts
15-May-18 21:10 34.030405 -117.667787 61 2032ft 133kts
15-May-18 21:11 34.040538 -117.628063 89 1841ft 120kts
15-May-18 21:12 34.040841 -117.591182 92 1913ft 94kts
15-May-18 21:13 34.042788 -117.563285 64 1589ft 80kts
15-May-18 21:14 34.054580 -117.567511 269 1256ft 50kts
15-May-18 21:15 34.054868 -117.584741 263 946ft 36kts
15-May-18 21:16 34.053924 -117.589898 248 946ft 5kts
15-May-18 21:17 34.053843 -117.595040 269 946ft 19kts
15-May-18 21:18 34.053833 -117.600672 268 946ft 15kts
15-May-18 21:19 34.052900 -117.602650 238 946ft 0kts
15-May-18 21:20 34.052900 -117.602650 238 946ft 0kts

Navigation Log

Ident Type
1. KLGB Airport
2. KONT Airport